TAF Text Data
IDs:
Format:
Raw Decoded Include METAR

Data at: 1359 UTC 21 Apr 2021

KSLN 211353Z 34011KT 10SM CLR 03/M01 A3035 RMK AO2 SLP285 T00281011

KSLN 211120Z 2112/2212 31007KT P6SM SKC
  FM220100 02007KT P6SM SCT150
  FM220200 11005KT P6SM SCT150
  FM221000 16004KT P6SM BKN100


KATW 211345Z 05007KT 10SM SCT012 SCT030 00/M05 A3011

KATW 211133Z 2112/2212 08007KT P6SM SCT010 BKN022
  TEMPO 2112/2114 BKN010
  FM211500 33005KT P6SM BKN070
  FM211900 29008KT P6SM SCT030 BKN045
  PROB30 2121/2201 3SM -SHSN BKN025
  FM220200 28003KT P6SM SCT060